createdAt,value
2023-03-26T00:02:16.137Z,7.60
2023-03-26T00:04:43.289Z,7.60
2023-03-26T00:07:13.086Z,7.60
2023-03-26T00:09:39.879Z,7.50
2023-03-26T00:12:06.982Z,7.50
2023-03-26T00:14:35.558Z,7.50
2023-03-26T00:17:02.806Z,7.40
2023-03-26T00:19:30.397Z,7.40
2023-03-26T00:21:57.861Z,7.30
2023-03-26T00:24:30.020Z,7.30
2023-03-26T00:26:56.902Z,7.20
2023-03-26T00:29:24.662Z,7.20
2023-03-26T00:31:52.144Z,7.20
2023-03-26T00:34:19.221Z,7.20
2023-03-26T00:36:47.002Z,7.20
2023-03-26T00:39:15.509Z,7.10
2023-03-26T00:41:43.168Z,7.10
2023-03-26T00:44:11.511Z,7.10
2023-03-26T00:46:38.469Z,7.20
2023-03-26T00:49:05.549Z,7.10
2023-03-26T00:51:33.902Z,7.10
2023-03-26T00:54:01.643Z,7.10
2023-03-26T00:56:28.507Z,7.00
2023-03-26T00:58:55.343Z,7.00
2023-03-26T01:01:28.785Z,7.00
2023-03-26T01:04:07.466Z,7.10
2023-03-26T01:06:41.481Z,7.00
2023-03-26T01:09:18.934Z,7.00
2023-03-26T01:11:45.905Z,7.00
2023-03-26T01:14:16.661Z,7.00
2023-03-26T01:16:54.882Z,7.10
2023-03-26T01:19:46.198Z,7.10
2023-03-26T01:22:20.490Z,7.10
2023-03-26T01:24:53.887Z,7.10
2023-03-26T01:27:34.296Z,7.10
2023-03-26T01:30:05.910Z,7.20
2023-03-26T01:32:51.662Z,7.10
2023-03-26T01:35:51.186Z,7.20
2023-03-26T01:38:46.980Z,7.10
2023-03-26T01:41:32.283Z,7.10
2023-03-26T01:44:16.752Z,7.20
2023-03-26T01:46:45.564Z,7.10
2023-03-26T01:49:13.278Z,7.20
2023-03-26T01:51:43.018Z,7.10
2023-03-26T01:54:15.674Z,7.10
2023-03-26T01:57:01.917Z,7.10
2023-03-26T01:59:37.984Z,7.10
2023-03-26T02:02:28.467Z,7.10
2023-03-26T02:05:04.347Z,7.20
2023-03-26T02:07:44.789Z,7.20
2023-03-26T02:10:17.080Z,7.20
2023-03-26T02:12:44.869Z,7.20
2023-03-26T02:15:12.778Z,7.20
2023-03-26T02:17:40.922Z,7.20
2023-03-26T02:20:10.867Z,7.10
2023-03-26T02:22:41.507Z,7.10
2023-03-26T02:25:17.693Z,7.10
2023-03-26T02:27:45.473Z,7.20
2023-03-26T02:30:17.553Z,7.10
2023-03-26T02:32:44.744Z,7.20
2023-03-26T02:35:12.885Z,7.30
2023-03-26T02:37:40.508Z,7.20
2023-03-26T02:40:11.359Z,7.10
2023-03-26T02:42:39.643Z,7.00
2023-03-26T02:45:07.271Z,7.00
2023-03-26T02:47:34.956Z,7.00
2023-03-26T02:50:03.763Z,7.10
2023-03-26T02:52:30.969Z,7.10
2023-03-26T02:54:57.884Z,7.10
2023-03-26T02:57:25.421Z,7.20
2023-03-26T02:59:52.958Z,7.10
2023-03-26T03:02:20.662Z,7.20
2023-03-26T03:04:47.532Z,7.20
2023-03-26T03:07:15.240Z,7.20
2023-03-26T03:09:42.176Z,7.20
2023-03-26T03:12:09.008Z,7.00
2023-03-26T03:14:36.527Z,7.10
2023-03-26T03:17:03.570Z,7.20
2023-03-26T03:19:30.525Z,7.10
2023-03-26T03:21:57.343Z,7.10
2023-03-26T03:24:24.185Z,7.10
2023-03-26T03:26:55.230Z,7.10
2023-03-26T03:29:22.858Z,7.20
2023-03-26T03:43:59.406Z,7.40
2023-03-26T03:46:26.943Z,7.40
2023-03-26T03:48:53.823Z,7.50
2023-03-26T03:51:21.047Z,7.50
2023-03-26T03:53:49.466Z,7.60
2023-03-26T03:56:19.303Z,7.50
2023-03-26T03:58:46.422Z,7.40
2023-03-26T04:01:13.560Z,7.40
2023-03-26T04:03:41.451Z,7.40
2023-03-26T04:06:11.116Z,7.40
2023-03-26T04:08:39.262Z,7.40
2023-03-26T04:11:06.409Z,7.30
2023-03-26T04:13:34.036Z,7.40
2023-03-26T04:16:01.554Z,7.40
2023-03-26T04:18:30.284Z,7.30
2023-03-26T04:20:57.309Z,7.20
2023-03-26T04:23:24.484Z,7.20
2023-03-26T04:25:54.373Z,7.20
2023-03-26T04:28:36.579Z,7.20
2023-03-26T04:31:04.083Z,7.20
2023-03-26T04:33:34.665Z,7.20
2023-03-26T04:36:03.064Z,7.20
2023-03-26T04:38:33.657Z,7.10
2023-03-26T04:41:04.048Z,7.10
2023-03-26T04:43:36.670Z,7.10
2023-03-26T04:46:04.588Z,7.10
2023-03-26T04:48:31.538Z,7.10
2023-03-26T04:50:58.902Z,7.10
2023-03-26T04:53:26.031Z,7.10
2023-03-26T04:56:01.539Z,7.10
2023-03-26T04:58:32.731Z,7.00
2023-03-26T05:01:10.216Z,7.00
2023-03-26T05:03:40.758Z,7.00
2023-03-26T05:06:10.546Z,7.00
2023-03-26T05:08:37.428Z,7.00
2023-03-26T05:11:07.624Z,7.00
2023-03-26T05:13:34.616Z,7.00
2023-03-26T05:16:01.558Z,7.00
2023-03-26T05:29:33.484Z,7.10
2023-03-26T05:32:01.133Z,7.20
2023-03-26T05:34:28.004Z,7.20
2023-03-26T05:36:54.884Z,7.40
2023-03-26T05:39:25.793Z,7.30
2023-03-26T05:41:53.039Z,7.30
2023-03-26T05:44:20.011Z,7.40
2023-03-26T05:46:46.902Z,7.40
2023-03-26T05:49:14.122Z,7.40
2023-03-26T05:51:41.183Z,7.40
2023-03-26T05:54:08.094Z,7.40
2023-03-26T05:56:34.995Z,7.50
2023-03-26T05:59:01.857Z,7.50
2023-03-26T06:01:29.387Z,7.70
2023-03-26T06:03:56.243Z,7.60
2023-03-26T06:06:23.921Z,7.70
2023-03-26T06:09:00.897Z,7.80
2023-03-26T06:11:30.798Z,7.80
2023-03-26T06:13:57.798Z,8.00
2023-03-26T06:16:27.044Z,8.10
2023-03-26T06:18:56.671Z,8.20
2023-03-26T06:21:25.693Z,8.10
2023-03-26T06:23:55.408Z,8.10
2023-03-26T06:26:48.830Z,8.20
2023-03-26T06:29:25.241Z,8.20
2023-03-26T06:31:52.390Z,8.10
2023-03-26T06:34:19.470Z,7.90
2023-03-26T06:36:48.773Z,7.70
2023-03-26T06:39:16.117Z,7.40
2023-03-26T06:41:44.912Z,7.40
2023-03-26T06:44:12.175Z,7.30
2023-03-26T06:46:38.992Z,7.20
2023-03-26T06:49:06.081Z,7.20
2023-03-26T06:51:33.884Z,7.20
2023-03-26T06:54:00.862Z,7.20
2023-03-26T06:56:27.829Z,7.10
2023-03-26T06:58:54.666Z,7.10
2023-03-26T07:01:21.880Z,7.10
2023-03-26T07:03:49.612Z,7.10
2023-03-26T07:06:16.493Z,7.00
2023-03-26T07:08:43.379Z,7.10
2023-03-26T07:11:10.281Z,7.10
2023-03-26T07:13:37.809Z,7.10
2023-03-26T07:16:05.060Z,7.30
2023-03-26T07:18:31.887Z,7.30
2023-03-26T07:20:59.100Z,7.40
2023-03-26T07:23:26.223Z,7.40
2023-03-26T07:25:54.165Z,7.60
2023-03-26T07:28:31.979Z,7.70
2023-03-26T07:31:13.869Z,7.80
2023-03-26T07:34:04.311Z,8.00
2023-03-26T07:36:52.464Z,8.20
2023-03-26T07:39:34.498Z,8.40
2023-03-26T07:42:17.198Z,8.60
2023-03-26T07:45:12.014Z,8.60
2023-03-26T07:47:41.863Z,8.70
2023-03-26T07:50:19.248Z,8.60
2023-03-26T07:52:46.500Z,8.60
2023-03-26T07:55:15.359Z,8.70
2023-03-26T07:57:50.754Z,8.80
2023-03-26T08:00:26.282Z,8.70
2023-03-26T08:03:25.674Z,8.70
2023-03-26T08:06:07.660Z,8.70
2023-03-26T08:09:08.157Z,8.70
2023-03-26T08:11:48.459Z,8.70
2023-03-26T08:14:18.032Z,8.70
2023-03-26T08:16:54.328Z,8.70
2023-03-26T08:19:38.681Z,8.80
2023-03-26T08:22:17.565Z,8.90
2023-03-26T08:25:09.635Z,8.80
2023-03-26T08:27:40.146Z,8.90
2023-03-26T08:30:20.451Z,9.00
2023-03-26T08:43:11.014Z,8.90
2023-03-26T08:46:15.948Z,9.00
2023-03-26T08:49:51.555Z,9.20
2023-03-26T09:03:59.761Z,9.70
2023-03-26T09:07:13.099Z,9.90
2023-03-26T09:14:33.833Z,10.30
2023-03-26T09:17:27.936Z,10.20
2023-03-26T09:20:31.035Z,10.10
2023-03-26T09:23:34.966Z,10.00
2023-03-26T09:26:38.542Z,9.60
2023-03-26T09:29:23.321Z,9.30
2023-03-26T09:32:14.413Z,9.00
2023-03-26T09:34:41.209Z,9.20
2023-03-26T09:37:21.283Z,9.30
2023-03-26T09:40:19.417Z,9.40
2023-03-26T09:45:55.531Z,9.50
2023-03-26T09:48:49.819Z,9.50
2023-03-26T09:51:40.500Z,9.60
2023-03-26T09:54:48.237Z,9.60
2023-03-26T09:57:29.113Z,9.60
2023-03-26T10:00:28.612Z,9.60
2023-03-26T10:03:18.806Z,9.60
2023-03-26T10:06:11.800Z,9.50
2023-03-26T10:08:47.624Z,9.60
2023-03-26T10:11:20.811Z,9.80
2023-03-26T10:13:56.269Z,10.10
2023-03-26T10:16:41.785Z,10.10
2023-03-26T10:19:45.737Z,10.10
2023-03-26T10:22:53.913Z,10.10
2023-03-26T10:25:39.838Z,10.00
2023-03-26T10:28:38.259Z,9.90
2023-03-26T10:31:41.913Z,9.50
2023-03-26T10:34:28.698Z,9.40
2023-03-26T10:37:08.044Z,9.80
2023-03-26T10:40:10.555Z,10.20
2023-03-26T10:43:19.818Z,11.10
2023-03-26T10:45:50.630Z,11.30
2023-03-26T10:48:43.253Z,11.00
2023-03-26T10:51:34.508Z,10.70
2023-03-26T10:54:12.989Z,10.50
2023-03-26T10:56:45.794Z,10.40
2023-03-26T10:59:15.822Z,9.70
2023-03-26T11:02:05.566Z,8.90
2023-03-26T11:04:57.085Z,8.90
2023-03-26T11:07:42.530Z,8.90
2023-03-26T11:10:16.109Z,9.00
2023-03-26T11:13:12.832Z,9.50
2023-03-26T11:16:04.760Z,9.80
2023-03-26T11:18:57.296Z,10.50
2023-03-26T11:21:42.697Z,10.80
2023-03-26T11:24:29.965Z,10.80
2023-03-26T11:27:14.952Z,10.80
2023-03-26T11:30:05.187Z,10.60
2023-03-26T11:32:52.872Z,10.80
2023-03-26T11:35:39.464Z,11.10
2023-03-26T11:38:40.280Z,11.20
2023-03-26T11:41:22.805Z,11.40
2023-03-26T11:44:26.935Z,11.50
2023-03-26T11:47:01.580Z,11.80
2023-03-26T11:49:29.529Z,11.70
2023-03-26T11:51:58.915Z,11.80
2023-03-26T11:54:27.967Z,12.00
2023-03-26T11:57:05.527Z,12.50
2023-03-26T11:59:49.074Z,13.30
2023-03-26T12:02:34.266Z,14.10
2023-03-26T12:05:20.902Z,13.40
2023-03-26T12:07:53.885Z,13.10
2023-03-26T12:10:24.065Z,12.70
2023-03-26T12:16:33.628Z,12.50
2023-03-26T12:19:17.353Z,12.20
2023-03-26T12:21:47.015Z,12.10
2023-03-26T12:24:35.500Z,12.10
2023-03-26T12:27:25.901Z,11.70
2023-03-26T12:30:02.448Z,11.30
2023-03-26T12:32:43.277Z,11.40
2023-03-26T12:35:29.210Z,11.60
2023-03-26T12:38:16.082Z,11.70
2023-03-26T12:40:43.507Z,11.40
2023-03-26T12:44:49.408Z,11.10
2023-03-26T12:47:56.896Z,11.00
2023-03-26T12:49:22.466Z,10.80
2023-03-26T12:52:27.895Z,11.00
2023-03-26T12:55:13.479Z,11.00
2023-03-26T12:58:13.231Z,10.70
2023-03-26T13:03:52.467Z,11.10
2023-03-26T13:06:58.919Z,11.00
2023-03-26T13:09:45.779Z,10.70
2023-03-26T13:12:40.516Z,10.50
2023-03-26T13:15:38.993Z,10.20
2023-03-26T13:18:24.554Z,9.70
2023-03-26T13:21:02.746Z,9.20
2023-03-26T13:23:39.579Z,9.10
2023-03-26T13:26:15.637Z,9.20
2023-03-26T13:28:52.658Z,10.00
2023-03-26T13:31:25.287Z,11.00
2023-03-26T13:34:11.330Z,11.10
2023-03-26T13:37:12.764Z,11.00
2023-03-26T13:39:39.695Z,11.00
2023-03-26T13:42:26.699Z,11.40
2023-03-26T13:45:06.063Z,11.80
2023-03-26T13:47:41.184Z,12.30
2023-03-26T13:50:24.036Z,12.50
2023-03-26T13:53:00.335Z,12.60
2023-03-26T13:56:00.348Z,13.00
2023-03-26T13:58:53.776Z,12.80
2023-03-26T14:01:41.125Z,12.20
2023-03-26T14:04:41.066Z,11.70
2023-03-26T14:07:23.404Z,11.00
2023-03-26T14:10:10.746Z,10.70
2023-03-26T14:13:05.156Z,10.60
2023-03-26T14:15:37.028Z,10.50
2023-03-26T14:18:34.245Z,10.60
2023-03-26T14:22:14.434Z,11.30
2023-03-26T14:33:04.516Z,12.50
2023-03-26T14:35:37.790Z,12.60
2023-03-26T14:38:33.738Z,12.20
2023-03-26T14:41:26.052Z,12.60
2023-03-26T14:44:25.899Z,12.70
2023-03-26T14:47:01.898Z,13.00
2023-03-26T14:49:46.141Z,12.50
2023-03-26T14:52:21.430Z,12.90
2023-03-26T14:54:53.440Z,13.40
2023-03-26T14:57:38.572Z,13.40
2023-03-26T15:00:39.913Z,13.00
2023-03-26T15:03:10.464Z,12.70
2023-03-26T15:05:42.870Z,13.20
2023-03-26T15:08:40.690Z,12.90
2023-03-26T15:11:25.737Z,12.70
2023-03-26T15:14:30.040Z,12.00
2023-03-26T15:17:29.225Z,11.60
2023-03-26T15:20:14.526Z,11.50
2023-03-26T15:22:44.049Z,11.70
2023-03-26T15:25:32.702Z,11.90
2023-03-26T15:28:37.201Z,12.00
2023-03-26T15:31:36.786Z,12.00
2023-03-26T15:34:38.506Z,11.80
2023-03-26T15:37:24.958Z,11.70
2023-03-26T15:40:20.021Z,11.40
2023-03-26T15:42:58.284Z,11.30
2023-03-26T15:45:31.699Z,11.00
2023-03-26T15:48:21.191Z,11.00
2023-03-26T15:59:01.452Z,10.60
2023-03-26T16:01:56.447Z,10.50
2023-03-26T16:05:05.892Z,10.50
2023-03-26T16:07:54.001Z,10.40
2023-03-26T16:10:47.520Z,10.40
2023-03-26T16:13:17.606Z,10.40
2023-03-26T16:15:56.002Z,10.30
2023-03-26T16:18:29.041Z,10.40
2023-03-26T16:21:30.530Z,10.30
2023-03-26T16:24:02.828Z,10.30
2023-03-26T16:26:53.182Z,10.20
2023-03-26T16:29:22.491Z,10.30
2023-03-26T16:32:16.204Z,10.30
2023-03-26T16:35:03.355Z,10.20
2023-03-26T16:37:43.897Z,10.20
2023-03-26T16:40:16.916Z,10.10
2023-03-26T16:43:17.097Z,10.00
2023-03-26T16:46:16.771Z,10.00
2023-03-26T16:48:59.561Z,10.00
2023-03-26T16:51:45.291Z,9.90
2023-03-26T16:54:42.196Z,9.80
2023-03-26T16:58:04.604Z,9.80
2023-03-26T17:00:57.163Z,9.70
2023-03-26T17:03:49.973Z,9.70
2023-03-26T17:06:45.825Z,9.70
2023-03-26T17:09:24.880Z,9.60
2023-03-26T17:12:08.428Z,9.60
2023-03-26T17:14:59.612Z,9.50
2023-03-26T17:17:36.807Z,9.40
2023-03-26T17:20:21.071Z,9.40
2023-03-26T17:26:22.367Z,9.30
2023-03-26T17:29:22.273Z,9.20
2023-03-26T17:32:08.608Z,9.20
2023-03-26T17:34:38.539Z,9.10
2023-03-26T17:37:22.038Z,9.10
2023-03-26T17:40:01.213Z,9.00
2023-03-26T17:42:32.674Z,9.00
2023-03-26T17:45:30.424Z,8.90
2023-03-26T17:48:02.810Z,8.90
2023-03-26T17:50:54.435Z,8.80
2023-03-26T17:53:28.340Z,8.80
2023-03-26T17:56:11.416Z,8.80
2023-03-26T17:58:52.713Z,8.70
2023-03-26T18:01:28.933Z,8.70
2023-03-26T18:04:00.399Z,8.60
2023-03-26T18:06:54.772Z,8.60
2023-03-26T18:09:57.172Z,8.50
2023-03-26T18:12:59.163Z,8.50
2023-03-26T18:15:33.310Z,8.40
2023-03-26T18:18:13.825Z,8.40
2023-03-26T18:20:43.881Z,8.30
2023-03-26T18:23:20.885Z,8.30
2023-03-26T18:25:57.025Z,8.30
2023-03-26T18:28:34.308Z,8.20
2023-03-26T18:31:23.971Z,8.20
2023-03-26T18:33:56.996Z,8.10
2023-03-26T18:36:26.346Z,8.00
2023-03-26T18:38:59.897Z,8.00
2023-03-26T18:41:34.227Z,8.00
2023-03-26T18:44:02.982Z,7.90
2023-03-26T18:46:32.690Z,7.90
2023-03-26T18:49:03.170Z,7.80
2023-03-26T18:51:31.944Z,7.90
2023-03-26T18:54:03.358Z,7.80
2023-03-26T18:56:36.723Z,7.80
2023-03-26T18:59:07.499Z,7.80
2023-03-26T19:01:38.143Z,7.80
2023-03-26T19:04:06.677Z,7.90
2023-03-26T19:06:38.483Z,7.80
2023-03-26T19:09:19.638Z,7.80
2023-03-26T19:15:40.559Z,7.90
2023-03-26T19:21:09.788Z,7.70
2023-03-26T19:23:43.046Z,7.60
2023-03-26T19:26:11.522Z,7.60
2023-03-26T19:28:41.920Z,7.60
2023-03-26T19:31:26.184Z,7.60
2023-03-26T19:34:00.815Z,7.60
2023-03-26T19:36:31.804Z,7.60
2023-03-26T19:39:02.365Z,7.50
2023-03-26T19:41:36.278Z,7.50
2023-03-26T19:44:17.653Z,7.40
2023-03-26T19:46:53.957Z,7.30
2023-03-26T19:49:42.105Z,7.30
2023-03-26T19:52:20.297Z,7.30
2023-03-26T19:55:03.730Z,7.30
2023-03-26T19:57:32.224Z,7.30
2023-03-26T19:59:59.961Z,7.20
2023-03-26T20:02:27.791Z,7.30
2023-03-26T20:04:54.883Z,7.30
2023-03-26T20:12:39.980Z,7.20
2023-03-26T20:15:18.962Z,7.20
2023-03-26T20:23:33.654Z,7.10
2023-03-26T20:26:00.514Z,7.00
2023-03-26T20:28:27.334Z,7.00
2023-03-26T20:30:54.929Z,7.00
2023-03-26T20:33:27.015Z,7.00
2023-03-26T20:36:00.509Z,6.90
2023-03-26T20:38:38.995Z,6.90
2023-03-26T20:41:13.378Z,6.90
2023-03-26T20:43:42.383Z,6.70
2023-03-26T20:46:30.938Z,6.80
2023-03-26T20:48:59.759Z,6.70
2023-03-26T20:51:28.818Z,6.70
2023-03-26T20:53:56.057Z,6.60
2023-03-26T20:56:25.574Z,6.50
2023-03-26T20:59:09.819Z,6.50
2023-03-26T21:01:41.167Z,6.50
2023-03-26T21:04:08.103Z,6.40
2023-03-26T21:06:35.067Z,6.40
2023-03-26T21:09:02.159Z,6.40
2023-03-26T21:11:50.066Z,6.30
2023-03-26T21:14:23.279Z,6.30
2023-03-26T21:16:50.726Z,6.30
2023-03-26T21:19:18.223Z,6.30
2023-03-26T21:22:05.145Z,6.30
2023-03-26T21:24:57.115Z,6.40
2023-03-26T21:28:01.160Z,6.40
2023-03-26T21:30:28.662Z,6.50
2023-03-26T21:32:55.578Z,6.40
2023-03-26T21:35:23.028Z,6.40
2023-03-26T21:37:53.120Z,6.40
2023-03-26T21:40:22.961Z,6.50
2023-03-26T21:42:52.632Z,6.40
2023-03-26T21:45:23.090Z,6.50
2023-03-26T21:47:50.796Z,6.50
2023-03-26T21:50:21.918Z,6.50
2023-03-26T21:52:50.804Z,6.50
2023-03-26T21:55:21.051Z,6.50
2023-03-26T21:58:21.800Z,6.30
2023-03-26T22:01:03.841Z,6.40
2023-03-26T22:06:44.517Z,6.30
2023-03-26T22:09:15.029Z,6.30
2023-03-26T22:11:59.121Z,6.20
2023-03-26T22:14:38.565Z,6.20
2023-03-26T22:17:05.396Z,6.20
2023-03-26T22:19:38.977Z,6.10
2023-03-26T22:22:05.900Z,6.10
2023-03-26T22:24:32.892Z,6.00
2023-03-26T22:27:01.285Z,6.00
2023-03-26T22:29:28.336Z,6.00
2023-03-26T22:31:55.193Z,6.00
2023-03-26T22:34:23.166Z,5.90
2023-03-26T22:36:50.818Z,5.90
2023-03-26T22:39:18.275Z,5.90
2023-03-26T22:41:45.076Z,5.90
2023-03-26T22:44:19.842Z,5.80
2023-03-26T22:46:51.480Z,5.90
2023-03-26T22:49:18.646Z,5.90
2023-03-26T22:51:46.118Z,5.90
2023-03-26T22:54:13.236Z,6.00
2023-03-26T22:56:40.588Z,5.90
2023-03-26T22:59:07.488Z,6.00
2023-03-26T23:01:35.128Z,5.90
2023-03-26T23:04:02.398Z,5.90
2023-03-26T23:06:29.348Z,6.10
2023-03-26T23:08:57.092Z,6.10
2023-03-26T23:11:24.209Z,6.00
2023-03-26T23:13:51.282Z,6.10
2023-03-26T23:16:19.859Z,6.10
2023-03-26T23:18:48.883Z,6.00
2023-03-26T23:21:23.824Z,6.00
2023-03-26T23:23:52.261Z,6.10
2023-03-26T23:26:19.221Z,6.00
2023-03-26T23:28:46.796Z,6.10
2023-03-26T23:31:14.226Z,6.10
2023-03-26T23:33:50.278Z,6.10
2023-03-26T23:36:19.303Z,6.10
2023-03-26T23:38:48.196Z,6.10
2023-03-26T23:41:21.613Z,6.10
2023-03-26T23:43:56.465Z,6.20
2023-03-26T23:46:30.355Z,6.10
2023-03-26T23:49:00.040Z,6.20
2023-03-26T23:51:32.902Z,6.10
2023-03-26T23:54:01.506Z,6.10
2023-03-26T23:56:32.216Z,6.00
2023-03-26T23:58:59.431Z,6.00
